Time;durP1;ratioP1;P1;durP2;ratioP2;P2;SDS_P1;SDS_P2;PMS_P1;PMS_P2;Temp;Humidity;BMP_temperature;BMP_pressure;BME280_temperature;BME280_humidity;BME280_pressure;Samples;Min_cycle;Max_cycle;Signal;HPM_P1;HPM_P2
2022/03/26 00:00:33;;;;;;;22.90;13.07;;;;;;;;;;4954380;28;20692;-67
2022/03/26 00:02:58;;;;;;;21.50;12.97;;;9.10;94.00;;;;;;4955108;28;20024;-67
2022/03/26 00:05:24;;;;;;;29.17;13.47;;;9.00;97.80;;;;;;4970329;28;20063;-66
2022/03/26 00:07:49;;;;;;;24.07;14.33;;;9.00;97.70;;;;;;4955671;28;20031;-67
2022/03/26 00:10:15;;;;;;;29.07;14.47;;;9.10;97.30;;;;;;4953794;29;20055;-67
2022/03/26 00:12:41;;;;;;;26.17;14.53;;;9.20;97.90;;;;;;4969803;28;20436;-66
2022/03/26 00:15:12;;;;;;;22.80;12.37;;;9.00;97.80;;;;;;4960474;28;20039;-66
2022/03/26 00:17:38;;;;;;;26.50;13.63;;;9.10;98.00;;;;;;4971722;28;20033;-66
2022/03/26 00:20:06;;;;;;;25.67;13.27;;;9.00;91.20;;;;;;4960115;28;20038;-67
2022/03/26 00:22:32;;;;;;;19.53;13.37;;;8.90;93.50;;;;;;4972628;28;20058;-67
2022/03/26 00:24:57;;;;;;;26.13;13.60;;;9.00;98.20;;;;;;4970938;28;20468;-67
2022/03/26 00:27:23;;;;;;;23.83;13.40;;;8.90;98.20;;;;;;4952989;28;20118;-67
2022/03/26 00:29:49;;;;;;;25.63;14.90;;;;;;;;;;4967689;28;20412;-66
2022/03/26 00:32:15;;;;;;;27.63;14.73;;;;;;;;;;4961642;28;20030;-67
2022/03/26 00:34:40;;;;;;;24.17;13.90;;;8.80;98.30;;;;;;4963067;28;20023;-67
2022/03/26 00:37:06;;;;;;;30.30;14.50;;;8.90;98.40;;;;;;4953699;28;20106;-67
2022/03/26 00:39:33;;;;;;;23.93;13.10;;;8.80;98.40;;;;;;4970745;28;20495;-66
2022/03/26 00:41:59;;;;;;;26.53;16.10;;;;;;;;;;4972605;28;20031;-67
2022/03/26 00:44:25;;;;;;;28.40;15.90;;;8.80;98.10;;;;;;4971081;28;20027;-66
2022/03/26 00:46:51;;;;;;;24.83;13.93;;;;;;;;;;4953632;28;20035;-66
2022/03/26 00:49:18;;;;;;;24.60;15.70;;;9.00;98.60;;;;;;4953503;29;20512;-66
2022/03/26 00:51:45;;;;;;;22.23;13.23;;;8.90;98.50;;;;;;4959932;28;20035;-66
2022/03/26 00:54:11;;;;;;;21.83;13.63;;;8.80;98.50;;;;;;4968873;28;20034;-67
2022/03/26 00:56:41;;;;;;;24.33;13.90;;;8.80;91.90;;;;;;4961744;28;20037;-67
2022/03/26 00:59:07;;;;;;;25.20;13.10;;;8.70;98.60;;;;;;4953499;28;20074;-66
2022/03/26 01:01:34;;;;;;;23.63;13.33;;;8.60;98.60;;;;;;4953237;28;20047;-66
2022/03/26 01:04:00;;;;;;;28.37;14.57;;;8.70;93.80;;;;;;4963006;28;20023;-66
2022/03/26 01:06:26;;;;;;;21.87;12.93;;;;;;;;;;4972774;28;20043;-66
2022/03/26 01:08:53;;;;;;;24.60;14.63;;;8.50;94.70;;;;;;4962910;28;20046;-67
2022/03/26 01:11:19;;;;;;;21.83;14.17;;;8.50;92.90;;;;;;4952623;28;20059;-66
2022/03/26 01:13:45;;;;;;;22.53;12.63;;;8.60;91.90;;;;;;4957752;28;20488;-67
2022/03/26 01:16:12;;;;;;;26.57;15.03;;;8.50;98.70;;;;;;4970608;28;20037;-66
2022/03/26 01:18:39;;;;;;;24.63;14.07;;;8.50;98.80;;;;;;4968214;28;20378;-66
2022/03/26 01:21:05;;;;;;;30.67;16.80;;;8.60;98.80;;;;;;4959005;28;20053;-66
2022/03/26 01:23:31;;;;;;;26.67;14.90;;;;;;;;;;4955904;28;20023;-66
2022/03/26 01:25:58;;;;;;;23.33;14.57;;;;;;;;;;4965696;28;20406;-67
2022/03/26 01:28:24;;;;;;;25.67;14.53;;;;;;;;;;4955559;28;20109;-67
2022/03/26 01:30:49;;;;;;;31.10;16.17;;;8.40;98.90;;;;;;4969907;28;20580;-67
2022/03/26 01:33:15;;;;;;;22.10;15.30;;;8.40;97.70;;;;;;4952650;29;20397;-67
2022/03/26 01:35:40;;;;;;;21.63;14.47;;;8.30;99.00;;;;;;4952828;28;20035;-67
2022/03/26 01:38:07;;;;;;;21.63;14.03;;;8.40;99.10;;;;;;4971695;28;20480;-67
2022/03/26 01:40:34;;;;;;;23.40;14.43;;;8.40;98.50;;;;;;4970944;28;20039;-67
2022/03/26 01:43:00;;;;;;;23.33;14.93;;;;;;;;;;4970394;28;20134;-68
2022/03/26 01:45:27;;;;;;;21.73;14.37;;;8.30;99.10;;;;;;4971798;28;20102;-67
2022/03/26 01:47:53;;;;;;;26.73;15.57;;;8.30;91.90;;;;;;4967599;28;20058;-67
2022/03/26 01:50:19;;;;;;;24.43;16.20;;;8.40;99.20;;;;;;4952389;28;20027;-67
2022/03/26 01:52:44;;;;;;;26.43;16.13;;;8.30;99.20;;;;;;4966195;28;20420;-67
2022/03/26 01:55:10;;;;;;;25.57;13.97;;;;;;;;;;4969685;28;20034;-67
2022/03/26 01:57:37;;;;;;;25.77;14.20;;;8.20;99.30;;;;;;4967744;28;20516;-67
2022/03/26 02:00:04;;;;;;;25.97;14.20;;;8.20;99.30;;;;;;4971436;28;20045;-67
2022/03/26 02:02:30;;;;;;;24.57;15.07;;;8.30;99.00;;;;;;4960224;28;20031;-67
2022/03/26 02:04:55;;;;;;;22.67;14.67;;;8.20;99.40;;;;;;4951873;28;20086;-67
2022/03/26 02:07:22;;;;;;;24.83;15.07;;;;;;;;;;4962260;28;20035;-67
2022/03/26 02:09:48;;;;;;;30.50;15.97;;;;;;;;;;4964574;28;20652;-67
2022/03/26 02:12:29;;;;;;;26.70;15.27;;;8.10;91.90;;;;;;4970283;28;20023;-67
2022/03/26 02:14:56;;;;;;;32.20;15.80;;;8.00;99.40;;;;;;4957241;28;20087;-67
2022/03/26 02:17:22;;;;;;;28.33;15.23;;;8.00;99.40;;;;;;4952122;28;20027;-67
2022/03/26 02:19:52;;;;;;;34.63;16.50;;;9.20;93.00;;;;;;4956201;28;20030;-67
2022/03/26 02:22:20;;;;;;;29.27;17.63;;;;;;;;;;4962517;28;20033;-67
2022/03/26 02:24:46;;;;;;;35.43;17.80;;;8.00;99.70;;;;;;4964823;28;20475;-67
2022/03/26 02:27:11;;;;;;;25.60;15.27;;;7.90;99.70;;;;;;4963425;28;20019;-67
2022/03/26 02:29:37;;;;;;;29.23;16.53;;;;;;;;;;4951809;28;20042;-67
2022/03/26 02:32:03;;;;;;;24.43;15.17;;;7.80;99.70;;;;;;4951713;29;20545;-67
2022/03/26 02:34:29;;;;;;;26.57;16.10;;;7.90;99.70;;;;;;4963834;28;20026;-67
2022/03/26 02:36:55;;;;;;;28.83;15.50;;;7.80;99.80;;;;;;4967291;28;20049;-67
2022/03/26 02:39:21;;;;;;;25.73;15.90;;;7.80;99.90;;;;;;4951871;28;20051;-67
2022/03/26 02:41:46;;;;;;;27.57;15.27;;;7.70;99.90;;;;;;4955350;28;20093;-67
2022/03/26 02:44:12;;;;;;;25.13;16.43;;;;;;;;;;4970997;28;20038;-67
2022/03/26 02:46:38;;;;;;;28.93;16.67;;;7.60;99.90;;;;;;4953047;28;20128;-67
2022/03/26 02:49:03;;;;;;;29.83;17.07;;;7.60;99.90;;;;;;4951674;28;20038;-67
2022/03/26 02:51:29;;;;;;;32.20;17.87;;;;;;;;;;4951372;28;20031;-67
2022/03/26 02:53:55;;;;;;;30.53;15.83;;;7.40;99.90;;;;;;4964415;28;20384;-67
2022/03/26 02:56:21;;;;;;;26.83;16.93;;;7.20;93.20;;;;;;4960075;28;20505;-67
2022/03/26 02:58:47;;;;;;;28.10;15.77;;;7.10;99.90;;;;;;4971234;28;20037;-67
2022/03/26 03:01:13;;;;;;;29.60;15.93;;;7.00;99.90;;;;;;4969235;28;20514;-67
2022/03/26 03:03:39;;;;;;;27.17;16.77;;;6.80;93.50;;;;;;4964924;28;20113;-67
2022/03/26 03:06:05;;;;;;;26.90;15.43;;;6.90;99.90;;;;;;4953805;28;20509;-67
2022/03/26 03:08:30;;;;;;;27.73;16.60;;;7.00;99.90;;;;;;4966996;28;20117;-67
2022/03/26 03:10:59;;;;;;;31.97;16.07;;;6.90;99.90;;;;;;4970665;28;20380;-66
2022/03/26 03:13:25;;;;;;;28.67;16.20;;;7.00;99.90;;;;;;4955533;28;20481;-67
2022/03/26 03:15:51;;;;;;;36.40;17.07;;;6.90;99.90;;;;;;4952555;28;20035;-67
2022/03/26 03:18:18;;;;;;;29.07;16.43;;;6.50;99.90;;;;;;4973063;28;20034;-68
2022/03/26 03:20:44;;;;;;;29.87;17.27;;;6.70;99.90;;;;;;4959520;28;20058;-67
2022/03/26 03:23:10;;;;;;;31.17;17.93;;;6.60;99.90;;;;;;4955065;28;20431;-67
2022/03/26 03:25:36;;;;;;;26.77;15.30;;;6.50;99.90;;;;;;4972265;28;20053;-67
2022/03/26 03:28:02;;;;;;;29.43;16.80;;;6.50;99.90;;;;;;4960255;28;20039;-67
2022/03/26 03:30:28;;;;;;;29.33;15.97;;;6.40;99.90;;;;;;4955023;28;20023;-67
2022/03/26 03:32:54;;;;;;;32.43;17.27;;;6.30;99.90;;;;;;4971243;28;20031;-67
2022/03/26 03:35:20;;;;;;;31.17;16.60;;;6.30;99.90;;;;;;4963043;28;20051;-67
2022/03/26 03:37:46;;;;;;;27.93;16.60;;;6.20;99.90;;;;;;4964475;28;20027;-67
2022/03/26 03:40:13;;;;;;;25.77;15.57;;;;;;;;;;4974190;28;20114;-67
2022/03/26 03:42:39;;;;;;;27.67;16.90;;;6.10;99.90;;;;;;4973801;28;20495;-67
2022/03/26 03:45:05;;;;;;;26.03;16.47;;;6.00;99.90;;;;;;4967826;28;20023;-66
2022/03/26 03:47:30;;;;;;;29.57;16.57;;;6.00;99.90;;;;;;4954623;29;20481;-67
2022/03/26 03:49:56;;;;;;;25.53;15.47;;;6.00;99.90;;;;;;4954008;28;20024;-67
2022/03/26 03:52:21;;;;;;;27.50;17.10;;;5.90;99.90;;;;;;4954657;29;20031;-67
2022/03/26 03:54:47;;;;;;;26.80;16.27;;;;;;;;;;4959437;28;20552;-66
2022/03/26 03:57:13;;;;;;;29.87;17.17;;;5.90;99.90;;;;;;4955526;28;20034;-66
2022/03/26 03:59:41;;;;;;;30.23;15.10;;;;;;;;;;4958587;28;20042;-66
2022/03/26 04:02:09;;;;;;;25.03;15.70;;;5.70;96.20;;;;;;4973640;28;20058;-66
2022/03/26 04:04:36;;;;;;;26.60;16.63;;;5.70;99.90;;;;;;4972784;28;20031;-66
2022/03/26 04:07:02;;;;;;;26.23;16.23;;;5.70;99.90;;;;;;4969959;28;20035;-66
2022/03/26 04:09:27;;;;;;;27.00;16.63;;;5.60;99.90;;;;;;4954010;28;20045;-66
2022/03/26 04:11:53;;;;;;;27.83;16.27;;;;;;;;;;4968386;28;20465;-66
2022/03/26 04:14:19;;;;;;;28.73;17.80;;;5.30;99.90;;;;;;4968375;28;20090;-66
2022/03/26 04:16:45;;;;;;;26.33;16.90;;;;;;;;;;4960446;28;20082;-66
2022/03/26 04:19:12;;;;;;;27.83;14.23;;;5.40;99.90;;;;;;4957160;28;20034;-66
2022/03/26 04:21:38;;;;;;;28.77;16.07;;;;;;;;;;4973057;28;20697;-66
2022/03/26 04:24:04;;;;;;;29.00;17.33;;;5.80;98.40;;;;;;4965753;28;20102;-66
2022/03/26 04:26:30;;;;;;;28.93;17.60;;;5.30;99.90;;;;;;4955515;28;20031;-66
2022/03/26 04:28:57;;;;;;;30.53;17.40;;;;;;;;;;4973278;28;20035;-66
2022/03/26 04:31:22;;;;;;;29.23;17.13;;;5.40;99.90;;;;;;4971889;28;20030;-66
2022/03/26 04:33:48;;;;;;;32.57;17.33;;;5.30;99.40;;;;;;4958259;28;20093;-66
2022/03/26 04:36:13;;;;;;;30.87;16.93;;;5.40;99.90;;;;;;4971822;28;20034;-66
2022/03/26 04:38:40;;;;;;;26.27;15.27;;;;;;;;;;4968490;28;20046;-66
2022/03/26 04:41:08;;;;;;;27.83;16.27;;;;;;;;;;4953618;28;20047;-66
2022/03/26 04:43:33;;;;;;;28.10;15.50;;;5.10;99.90;;;;;;4954386;28;20186;-66
2022/03/26 04:45:59;;;;;;;24.33;14.83;;;;;;;;;;4952125;28;20156;-66
2022/03/26 04:48:24;;;;;;;27.33;15.90;;;4.70;99.90;;;;;;4955077;28;20037;-66
2022/03/26 04:50:52;;;;;;;27.10;17.20;;;;;;;;;;4955625;28;20034;-66
2022/03/26 04:53:18;;;;;;;27.60;16.90;;;;;;;;;;4953365;28;20110;-66
2022/03/26 04:55:43;;;;;;;23.47;16.10;;;4.90;99.90;;;;;;4954591;28;20114;-66
2022/03/26 04:58:09;;;;;;;29.37;17.63;;;;;;;;;;4968022;28;20030;-66
2022/03/26 05:00:35;;;;;;;34.63;18.97;;;4.90;99.90;;;;;;4972580;28;20046;-66
2022/03/26 05:03:00;;;;;;;28.73;16.67;;;4.90;99.90;;;;;;4968175;28;20473;-66
2022/03/26 05:05:26;;;;;;;29.37;16.63;;;4.90;99.90;;;;;;4957853;28;20090;-66
2022/03/26 05:07:55;;;;;;;32.20;17.43;;;4.80;99.90;;;;;;4953154;29;20023;-66
2022/03/26 05:10:29;;;;;;;32.20;15.80;;;4.80;99.90;;;;;;4969910;28;20046;-66
2022/03/26 05:12:56;;;;;;;27.03;15.83;;;4.80;99.90;;;;;;4972454;28;20365;-66
2022/03/26 05:15:23;;;;;;;29.43;18.00;;;4.70;99.90;;;;;;4954386;28;20035;-66
2022/03/26 05:17:50;;;;;;;31.97;17.83;;;4.70;99.90;;;;;;4957305;28;20480;-66
2022/03/26 05:20:16;;;;;;;27.07;16.83;;;;;;;;;;4972177;28;20049;-66
2022/03/26 05:22:44;;;;;;;35.67;16.50;;;4.60;99.90;;;;;;4968114;28;20035;-66
2022/03/26 05:25:10;;;;;;;32.77;18.60;;;4.50;99.90;;;;;;4961955;28;20030;-66
2022/03/26 05:27:36;;;;;;;30.47;17.10;;;4.50;99.90;;;;;;4955574;28;20046;-66
2022/03/26 05:30:04;;;;;;;38.00;18.27;;;4.60;99.90;;;;;;4952968;28;20113;-66
2022/03/26 05:32:30;;;;;;;27.63;16.20;;;;;;;;;;4960952;28;20047;-66
2022/03/26 05:34:56;;;;;;;30.03;17.60;;;4.50;99.90;;;;;;4969647;28;20444;-66
2022/03/26 05:37:22;;;;;;;34.43;18.07;;;;;;;;;;4951149;29;20058;-66
2022/03/26 05:39:48;;;;;;;32.80;18.17;;;;;;;;;;4965037;28;20030;-67
2022/03/26 05:42:14;;;;;;;31.00;18.13;;;4.40;99.20;;;;;;4971894;28;20031;-66
2022/03/26 05:44:40;;;;;;;35.97;18.80;;;4.40;99.90;;;;;;4963798;28;20038;-66
2022/03/26 05:47:06;;;;;;;34.17;17.93;;;4.50;99.90;;;;;;4952089;29;20488;-67
2022/03/26 05:49:32;;;;;;;30.83;17.20;;;;;;;;;;4955269;28;20467;-66
2022/03/26 05:51:58;;;;;;;30.13;17.57;;;4.40;99.90;;;;;;4969465;28;20026;-66
2022/03/26 05:54:23;;;;;;;30.27;18.10;;;4.60;99.90;;;;;;4957662;28;20114;-67
2022/03/26 05:56:52;;;;;;;28.10;16.27;;;;;;;;;;4969618;28;20114;-66
2022/03/26 05:59:23;;;;;;;30.53;17.07;;;4.60;99.90;;;;;;4956517;28;20039;-66
2022/03/26 06:01:50;;;;;;;29.07;17.33;;;4.60;99.90;;;;;;4951745;28;20047;-66
2022/03/26 06:04:16;;;;;;;32.00;18.90;;;4.60;99.30;;;;;;4960648;28;20035;-66
2022/03/26 06:06:43;;;;;;;27.27;17.60;;;4.70;99.90;;;;;;4967997;28;20039;-66
2022/03/26 06:09:09;;;;;;;33.37;17.77;;;;;;;;;;4963338;28;20039;-66
2022/03/26 06:11:34;;;;;;;39.67;20.47;;;4.80;99.90;;;;;;4956622;28;20058;-66
2022/03/26 06:14:00;;;;;;;33.33;19.30;;;;;;;;;;4951536;28;20114;-66
2022/03/26 06:16:26;;;;;;;32.80;18.93;;;4.80;99.90;;;;;;4952046;29;20031;-66
2022/03/26 06:18:51;;;;;;;30.73;18.00;;;4.80;99.90;;;;;;4957572;28;20027;-66
2022/03/26 06:21:17;;;;;;;36.23;19.87;;;4.80;99.90;;;;;;4970777;28;20126;-66
2022/03/26 06:23:42;;;;;;;32.17;19.27;;;5.00;99.90;;;;;;4966177;28;20486;-66
2022/03/26 06:26:09;;;;;;;30.13;18.60;;;;;;;;;;4955047;28;20396;-66
2022/03/26 06:28:34;;;;;;;31.90;17.63;;;5.10;99.90;;;;;;4959617;28;20119;-66
2022/03/26 06:31:00;;;;;;;30.20;19.37;;;;;;;;;;4955633;28;20039;-66
2022/03/26 06:33:26;;;;;;;35.27;19.90;;;5.20;99.90;;;;;;4957125;28;20041;-66
2022/03/26 06:35:51;;;;;;;36.67;19.93;;;5.30;99.90;;;;;;4961740;28;20039;-66
2022/03/26 06:38:17;;;;;;;34.93;20.10;;;;;;;;;;4954937;28;20026;-66
2022/03/26 06:40:42;;;;;;;42.00;19.77;;;5.50;99.90;;;;;;4956116;28;20078;-66
2022/03/26 06:43:08;;;;;;;32.20;17.83;;;5.60;99.90;;;;;;4951169;29;20113;-66
2022/03/26 06:45:37;;;;;;;33.63;19.73;;;5.70;99.90;;;;;;4959848;28;20043;-66
2022/03/26 06:48:03;;;;;;;35.43;19.27;;;;;;;;;;4953649;28;20373;-66
2022/03/26 06:50:29;;;;;;;35.93;21.27;;;5.80;99.90;;;;;;4957209;28;20141;-66
2022/03/26 06:52:55;;;;;;;36.23;22.77;;;;;;;;;;4968513;28;20485;-66
2022/03/26 06:55:21;;;;;;;34.23;18.90;;;5.90;99.90;;;;;;4972645;28;20050;-66
2022/03/26 06:57:49;;;;;;;33.60;19.37;;;6.10;99.90;;;;;;4969106;28;20122;-66
2022/03/26 07:00:15;;;;;;;34.07;18.80;;;;;;;;;;4955529;28;20039;-66
2022/03/26 07:02:42;;;;;;;36.30;21.17;;;;;;;;;;4973758;28;20058;-66
2022/03/26 07:05:08;;;;;;;33.47;21.63;;;6.20;99.90;;;;;;4970949;28;20075;-66
2022/03/26 07:07:34;;;;;;;35.77;19.87;;;6.50;99.90;;;;;;4963266;28;20043;-66
2022/03/26 07:10:00;;;;;;;35.43;21.00;;;;;;;;;;4967096;28;20039;-66
2022/03/26 07:12:29;;;;;;;36.53;20.20;;;6.70;99.90;;;;;;4968200;28;20030;-66
2022/03/26 07:14:55;;;;;;;35.37;21.20;;;6.70;99.90;;;;;;4973994;28;20136;-66
2022/03/26 07:17:20;;;;;;;38.83;22.20;;;;;;;;;;4972068;28;20114;-66
2022/03/26 07:19:46;;;;;;;38.80;21.90;;;;;;;;;;4972134;28;20034;-66
2022/03/26 07:22:12;;;;;;;42.37;22.07;;;6.90;99.90;;;;;;4972664;28;20115;-66
2022/03/26 07:24:37;;;;;;;34.97;22.07;;;7.00;99.90;;;;;;4973814;28;20066;-66
2022/03/26 07:27:03;;;;;;;41.40;24.53;;;7.20;97.30;;;;;;4964345;28;20408;-66
2022/03/26 07:29:29;;;;;;;40.67;22.10;;;7.20;99.90;;;;;;4973901;28;20031;-66
2022/03/26 07:31:55;;;;;;;43.40;25.67;;;;;;;;;;4974118;28;20032;-66
2022/03/26 07:34:22;;;;;;;39.50;23.70;;;;;;;;;;4961305;28;20065;-67
2022/03/26 07:36:48;;;;;;;42.27;25.87;;;7.60;98.20;;;;;;4970611;28;20031;-66
2022/03/26 07:39:15;;;;;;;46.57;25.23;;;;;;;;;;4963765;28;20034;-66
2022/03/26 07:41:40;;;;;;;48.40;26.93;;;8.10;99.90;;;;;;4967858;28;20088;-66
2022/03/26 07:44:07;;;;;;;44.00;27.03;;;8.00;99.90;;;;;;4962232;28;20497;-66
2022/03/26 07:46:32;;;;;;;46.70;25.70;;;8.30;99.90;;;;;;4972437;28;20444;-67
2022/03/26 07:48:58;;;;;;;49.67;30.40;;;8.20;99.90;;;;;;4967023;28;20102;-66
2022/03/26 07:51:23;;;;;;;53.23;30.20;;;8.40;99.90;;;;;;4954723;29;20066;-67
2022/03/26 07:53:49;;;;;;;46.63;28.03;;;;;;;;;;4954429;28;20110;-67
2022/03/26 07:56:15;;;;;;;49.27;28.30;;;8.80;98.80;;;;;;4954029;28;20067;-68
2022/03/26 07:58:40;;;;;;;47.70;26.67;;;9.10;99.90;;;;;;4964813;28;20143;-69
2022/03/26 08:01:06;;;;;;;42.43;25.13;;;;;;;;;;4972935;28;20435;-68
2022/03/26 08:03:32;;;;;;;50.70;27.97;;;;;;;;;;4970142;28;20026;-68
2022/03/26 08:05:58;;;;;;;52.03;30.10;;;9.30;99.90;;;;;;4971103;28;20066;-68
2022/03/26 08:08:25;;;;;;;50.60;29.30;;;9.50;99.90;;;;;;4972950;28;20070;-69
2022/03/26 08:10:50;;;;;;;50.23;26.23;;;9.50;99.90;;;;;;4972598;28;20134;-69
2022/03/26 08:13:17;;;;;;;50.70;26.20;;;;;;;;;;4955317;28;20118;-69
2022/03/26 08:15:42;;;;;;;53.57;30.50;;;10.00;99.90;;;;;;4954073;28;20027;-68
2022/03/26 08:18:08;;;;;;;50.90;30.43;;;;;;;;;;4967441;28;20118;-69
2022/03/26 08:20:34;;;;;;;55.17;29.80;;;10.20;99.90;;;;;;4973286;28;20066;-68
2022/03/26 08:23:00;;;;;;;47.37;25.87;;;;;;;;;;4972807;28;20034;-69
2022/03/26 08:28:11;;;;;;;;;;;10.40;93.60;;;;;;4962448;28;20507;-68
2022/03/26 08:30:37;;;;;;;50.10;26.47;;;;;;;;;;4971049;28;19932;-68
2022/03/26 08:33:04;;;;;;;47.20;26.27;;;10.90;99.90;;;;;;4967218;28;20732;-69
2022/03/26 08:35:41;;;;;;;55.73;27.87;;;11.00;99.90;;;;;;4953769;28;20481;-68
2022/03/26 08:38:07;;;;;;;38.83;24.00;;;11.20;99.90;;;;;;4966685;28;20081;-70
2022/03/26 08:40:33;;;;;;;50.73;26.73;;;;;;;;;;4969351;28;20050;-69
2022/03/26 08:42:59;;;;;;;47.87;25.57;;;11.30;99.70;;;;;;4972783;28;20038;-68
2022/03/26 08:45:29;;;;;;;52.90;27.37;;;12.60;93.80;;;;;;4972581;28;20394;-69
2022/03/26 08:47:55;;;;;;;44.00;26.53;;;11.40;99.30;;;;;;4973039;28;20073;-68
2022/03/26 08:50:21;;;;;;;43.80;23.33;;;11.70;99.20;;;;;;4958981;28;20492;-68
2022/03/26 08:52:47;;;;;;;42.53;26.50;;;;;;;;;;4953549;28;20027;-68
2022/03/26 08:55:14;;;;;;;44.93;24.13;;;12.00;98.80;;;;;;4953006;28;20041;-68
2022/03/26 08:57:40;;;;;;;43.10;25.43;;;12.10;98.70;;;;;;4961391;28;20050;-68
2022/03/26 09:00:07;;;;;;;46.67;24.57;;;11.90;98.40;;;;;;4966510;28;20039;-68
2022/03/26 09:02:32;;;;;;;37.97;23.47;;;12.20;98.30;;;;;;4969961;28;20429;-68
2022/03/26 09:04:58;;;;;;;40.00;23.97;;;12.30;95.30;;;;;;4965370;28;20042;-69
2022/03/26 09:07:23;;;;;;;35.77;22.40;;;12.40;95.60;;;;;;4953224;29;20037;-69
2022/03/26 09:09:49;;;;;;;35.53;19.57;;;;;;;;;;4952397;28;20528;-68
2022/03/26 09:12:15;;;;;;;33.57;20.70;;;12.70;96.00;;;;;;4952205;28;20119;-69
2022/03/26 09:14:40;;;;;;;36.25;23.33;;;12.40;97.80;;;;;;4963960;28;20037;-68
2022/03/26 09:17:06;;;;;;;34.17;19.38;;;;;;;;;;4970882;28;20029;-69
2022/03/26 09:19:32;;;;;;;36.63;22.05;;;12.70;97.60;;;;;;4970420;28;20419;-69
2022/03/26 09:21:58;;;;;;;36.38;21.73;;;12.70;97.40;;;;;;4971130;28;20114;-69
2022/03/26 09:24:23;;;;;;;32.25;20.48;;;13.00;97.30;;;;;;4970425;28;20059;-69
2022/03/26 09:26:49;;;;;;;30.98;20.45;;;;;;;;;;4963450;28;20038;-68
2022/03/26 09:29:16;;;;;;;32.20;18.13;;;13.10;95.40;;;;;;4957612;28;20031;-68
2022/03/26 09:31:42;;;;;;;27.15;17.45;;;13.10;97.00;;;;;;4972191;28;20031;-68
2022/03/26 09:34:08;;;;;;;27.77;17.02;;;13.30;96.90;;;;;;4971584;28;20161;-68
2022/03/26 09:36:33;;;;;;;30.88;17.42;;;13.50;96.90;;;;;;4972049;28;20030;-68
2022/03/26 09:38:59;;;;;;;23.92;15.60;;;13.60;96.70;;;;;;4961175;28;20034;-67
2022/03/26 09:41:27;;;;;;;22.25;13.88;;;13.70;92.10;;;;;;4952464;29;20429;-68
2022/03/26 09:43:54;;;;;;;24.30;13.75;;;13.80;96.40;;;;;;4952537;28;20053;-68
2022/03/26 09:46:20;;;;;;;24.02;14.10;;;14.30;96.20;;;;;;4952590;28;20034;-68
2022/03/26 09:48:45;;;;;;;19.02;11.48;;;14.40;96.20;;;;;;4957212;28;20022;-68
2022/03/26 09:51:15;;;;;;;19.75;12.38;;;14.00;96.40;;;;;;4971131;28;20488;-68
2022/03/26 09:53:41;;;;;;;22.27;13.00;;;14.10;89.80;;;;;;4963871;28;20029;-68
2022/03/26 09:56:07;;;;;;;19.42;13.85;;;14.40;96.20;;;;;;4967930;28;20133;-68
2022/03/26 09:58:33;;;;;;;22.88;14.13;;;14.70;96.00;;;;;;4962458;28;20138;-68
2022/03/26 10:00:59;;;;;;;20.02;12.65;;;14.10;95.60;;;;;;4952577;28;20473;-68
2022/03/26 10:03:25;;;;;;;18.00;11.90;;;14.70;95.70;;;;;;4960355;28;20023;-69
2022/03/26 10:06:02;;;;;;;18.40;13.35;;;14.70;96.10;;;;;;4952068;28;20035;-69
2022/03/26 10:08:27;;;;;;;20.98;13.93;;;14.50;95.60;;;;;;4954215;28;20046;-69
2022/03/26 10:10:54;;;;;;;20.92;14.32;;;14.80;95.40;;;;;;4967343;28;20075;-69
2022/03/26 10:13:46;;;;;;;20.30;13.82;;;14.90;95.90;;;;;;4965012;28;20027;-69
2022/03/26 10:16:14;;;;;;;15.82;11.43;;;14.50;95.40;;;;;;4952209;28;20144;-69
2022/03/26 10:18:44;;;;;;;18.63;12.73;;;14.70;95.40;;;;;;4952312;28;20507;-68
2022/03/26 10:21:20;;;;;;;20.45;13.13;;;14.80;95.10;;;;;;4951111;28;20113;-69
2022/03/26 10:23:47;;;;;;;15.57;11.50;;;15.10;85.30;;;;;;4957556;28;20065;-68
2022/03/26 10:26:23;;;;;;;16.92;11.13;;;15.30;86.70;;;;;;4968017;28;20046;-68
2022/03/26 10:28:55;;;;;;;17.08;10.93;;;15.10;84.90;;;;;;4967118;28;20325;-69
2022/03/26 10:34:20;;;;;;;17.42;11.95;;;15.60;95.10;;;;;;4952645;28;20050;-70
2022/03/26 10:36:47;;;;;;;18.35;11.90;;;14.90;86.50;;;;;;4951647;28;20042;-70
2022/03/26 10:39:20;;;;;;;16.25;12.55;;;16.00;86.50;;;;;;4956577;28;20430;-70
2022/03/26 10:41:49;;;;;;;16.83;11.63;;;15.40;84.10;;;;;;4950584;28;20118;-70
2022/03/26 10:44:17;;;;;;;17.80;13.43;;;15.30;85.40;;;;;;4951674;28;20106;-72
2022/03/26 10:46:59;;;;;;;15.80;11.40;;;15.50;94.60;;;;;;4969691;28;20035;-70
2022/03/26 10:49:33;;;;;;;14.57;10.02;;;15.50;94.40;;;;;;4967868;28;20555;-70
2022/03/26 10:52:12;;;;;;;10.77;8.70;;;15.40;82.90;;;;;;4960268;28;20471;-70
2022/03/26 10:54:38;;;;;;;15.23;9.98;;;15.40;85.10;;;;;;4951217;29;20035;-70
2022/03/26 10:57:05;;;;;;;13.82;9.70;;;15.50;83.50;;;;;;4961769;28;20035;-68
2022/03/26 10:59:32;;;;;;;15.27;10.40;;;15.40;83.10;;;;;;4988568;28;20053;-68
2022/03/26 11:01:58;;;;;;;10.00;8.77;;;15.40;94.00;;;;;;4960759;28;20043;-69
2022/03/26 11:04:28;;;;;;;15.30;8.65;;;15.50;94.10;;;;;;4968919;28;20445;-69
2022/03/26 11:06:56;;;;;;;15.23;9.27;;;15.50;84.10;;;;;;4964830;28;20535;-69
2022/03/26 11:09:22;;;;;;;10.63;7.97;;;15.70;93.90;;;;;;4969119;28;20066;-69
2022/03/26 11:11:49;;;;;;;13.50;9.18;;;15.50;83.40;;;;;;4966614;28;20038;-69
2022/03/26 11:14:20;;;;;;;13.13;9.65;;;15.50;82.80;;;;;;4950749;28;20027;-69
2022/03/26 11:17:12;;;;;;;11.38;8.57;;;15.60;82.80;;;;;;4951757;28;20450;-70
2022/03/26 11:20:06;;;;;;;8.82;6.93;;;15.70;81.00;;;;;;4950977;29;20032;-72
2022/03/26 11:23:13;;;;;;;12.10;7.03;;;15.70;80.30;;;;;;4951142;28;20039;-69
2022/03/26 11:25:50;;;;;;;9.95;6.63;;;16.00;92.40;;;;;;4942894;29;20076;-70
2022/03/26 11:28:58;;;;;;;10.52;6.20;;;15.70;80.40;;;;;;4948554;29;20035;-69
2022/03/26 11:31:57;;;;;;;12.73;6.13;;;16.10;78.60;;;;;;4940362;29;20039;-69
2022/03/26 11:34:22;;;;;;;10.25;7.03;;;16.20;77.70;;;;;;4948060;29;20504;-69
2022/03/26 11:36:51;;;;;;;11.10;6.75;;;16.20;77.60;;;;;;4949824;28;20034;-70
2022/03/26 11:39:19;;;;;;;16.17;9.05;;;16.10;91.10;;;;;;4951610;29;20050;-69
2022/03/26 11:41:45;;;;;;;11.63;7.20;;;15.90;90.80;;;;;;4951583;29;20054;-69
2022/03/26 11:44:12;;;;;;;15.73;8.68;;;16.20;76.70;;;;;;4951153;29;20034;-70
2022/03/26 11:52:28;;;;;;;16.77;8.80;;;16.40;74.60;;;;;;4951846;29;20058;-71
2022/03/26 11:55:01;;;;;;;15.45;11.15;;;16.50;75.30;;;;;;4951672;29;20042;-70
2022/03/26 11:57:27;;;;;;;15.40;9.88;;;16.40;79.00;;;;;;4951008;29;20032;-70
2022/03/26 11:59:58;;;;;;;15.95;10.35;;;16.50;73.40;;;;;;4950971;29;20035;-70
2022/03/26 12:02:25;;;;;;;16.38;10.73;;;16.60;73.50;;;;;;4972235;28;20039;-71
2022/03/26 12:04:57;;;;;;;13.55;8.18;;;16.60;74.30;;;;;;4971080;28;20042;-69
2022/03/26 12:07:26;;;;;;;11.10;7.15;;;16.50;75.10;;;;;;4973195;28;20073;-70
2022/03/26 12:10:04;;;;;;;10.32;6.40;;;16.50;74.50;;;;;;4971267;28;20058;-69
2022/03/26 12:12:46;;;;;;;13.55;8.50;;;16.50;75.10;;;;;;4971215;28;20113;-69
2022/03/26 12:15:14;;;;;;;13.23;8.05;;;16.50;75.00;;;;;;4966812;28;20027;-70
2022/03/26 12:17:47;;;;;;;10.57;6.10;;;17.40;75.30;;;;;;4972897;28;20373;-71
2022/03/26 12:20:25;;;;;;;12.02;7.70;;;16.50;74.40;;;;;;4973203;28;20043;-69
2022/03/26 12:23:11;;;;;;;12.23;8.13;;;16.50;74.70;;;;;;4968249;28;20019;-69
2022/03/26 12:25:46;;;;;;;13.18;6.40;;;17.30;74.80;;;;;;4967664;28;20043;-70
2022/03/26 12:28:13;;;;;;;14.05;7.18;;;16.70;73.60;;;;;;4964440;28;20106;-71
2022/03/26 12:30:47;;;;;;;10.38;6.72;;;16.80;72.90;;;;;;4953656;29;20023;-70
2022/03/26 12:33:13;;;;;;;;;;;16.90;71.40;;;;;;4953485;29;20114;-69
2022/03/26 12:35:41;;;;;;;11.50;7.25;;;17.10;73.10;;;;;;4953534;28;19929;-70
2022/03/26 12:38:07;;;;;;;11.27;7.55;;;17.00;71.40;;;;;;4953385;29;20035;-69
2022/03/26 12:40:34;;;;;;;10.82;7.22;;;17.10;70.90;;;;;;4953218;29;20035;-70
2022/03/26 12:43:00;;;;;;;13.90;7.22;;;17.20;70.40;;;;;;4954949;28;20030;-69
2022/03/26 12:45:29;;;;;;;7.43;5.97;;;17.20;69.70;;;;;;4972186;28;20109;-70
2022/03/26 12:47:55;;;;;;;13.43;6.45;;;17.20;70.70;;;;;;4970908;28;20161;-69
2022/03/26 12:50:22;;;;;;;11.82;7.78;;;17.20;69.80;;;;;;4972221;28;20437;-70
2022/03/26 12:52:49;;;;;;;9.93;6.47;;;17.20;70.00;;;;;;4972483;28;20121;-69
2022/03/26 12:55:16;;;;;;;12.23;7.82;;;17.30;70.50;;;;;;4959857;28;20032;-69
2022/03/26 13:00:29;;;;;;;11.75;8.27;;;17.20;69.90;;;;;;4956221;28;20511;-70
2022/03/26 13:03:06;;;;;;;14.50;8.38;;;17.30;69.50;;;;;;4952469;28;20016;-69
2022/03/26 13:05:34;;;;;;;13.65;7.05;;;17.40;70.40;;;;;;4955117;28;20079;-71
2022/03/26 13:08:00;;;;;;;14.13;8.65;;;17.50;69.50;;;;;;4967619;28;20030;-69